sensor_id;sensor_type;location;lat;lon;timestamp;temperature;humidity
15099;DHT22;33900;53.640;9.942;2023-05-07T00:01:10;13.70;85.30
15099;DHT22;33900;53.640;9.942;2023-05-07T00:03:36;13.80;85.10
15099;DHT22;33900;53.640;9.942;2023-05-07T00:06:03;13.80;85.00
15099;DHT22;33900;53.640;9.942;2023-05-07T00:08:34;13.80;84.80
15099;DHT22;33900;53.640;9.942;2023-05-07T00:11:00;13.80;84.80
15099;DHT22;33900;53.640;9.942;2023-05-07T00:13:28;13.80;84.70
15099;DHT22;33900;53.640;9.942;2023-05-07T00:15:56;13.80;84.60
15099;DHT22;33900;53.640;9.942;2023-05-07T00:18:21;13.80;84.40
15099;DHT22;33900;53.640;9.942;2023-05-07T00:20:47;13.80;84.20
15099;DHT22;33900;53.640;9.942;2023-05-07T00:23:13;13.80;84.20
15099;DHT22;33900;53.640;9.942;2023-05-07T00:25:39;13.80;84.10
15099;DHT22;33900;53.640;9.942;2023-05-07T00:28:04;13.70;83.80
15099;DHT22;33900;53.640;9.942;2023-05-07T00:30:30;13.70;83.90
15099;DHT22;33900;53.640;9.942;2023-05-07T00:32:55;13.70;83.90
15099;DHT22;33900;53.640;9.942;2023-05-07T00:35:24;13.70;83.80
15099;DHT22;33900;53.640;9.942;2023-05-07T00:37:52;13.70;83.80
15099;DHT22;33900;53.640;9.942;2023-05-07T00:40:18;13.70;83.80
15099;DHT22;33900;53.640;9.942;2023-05-07T00:42:44;13.60;83.70
15099;DHT22;33900;53.640;9.942;2023-05-07T00:45:13;13.60;83.70
15099;DHT22;33900;53.640;9.942;2023-05-07T00:47:41;13.60;83.70
15099;DHT22;33900;53.640;9.942;2023-05-07T00:50:07;13.50;83.70
15099;DHT22;33900;53.640;9.942;2023-05-07T00:52:36;13.50;83.80
15099;DHT22;33900;53.640;9.942;2023-05-07T00:55:06;13.50;83.60
15099;DHT22;33900;53.640;9.942;2023-05-07T00:57:41;13.50;83.70
15099;DHT22;33900;53.640;9.942;2023-05-07T01:00:10;13.40;83.60
15099;DHT22;33900;53.640;9.942;2023-05-07T01:02:40;13.40;83.60
15099;DHT22;33900;53.640;9.942;2023-05-07T01:05:11;13.40;84.40
15099;DHT22;33900;53.640;9.942;2023-05-07T01:07:38;13.40;83.70
15099;DHT22;33900;53.640;9.942;2023-05-07T01:10:05;13.40;83.60
15099;DHT22;33900;53.640;9.942;2023-05-07T01:12:31;13.30;83.50
15099;DHT22;33900;53.640;9.942;2023-05-07T01:14:58;13.30;83.60
15099;DHT22;33900;53.640;9.942;2023-05-07T01:17:24;13.30;83.70
15099;DHT22;33900;53.640;9.942;2023-05-07T01:19:50;13.30;83.80
15099;DHT22;33900;53.640;9.942;2023-05-07T01:22:17;13.30;83.80
15099;DHT22;33900;53.640;9.942;2023-05-07T01:24:51;13.30;83.70
15099;DHT22;33900;53.640;9.942;2023-05-07T01:27:18;13.20;83.70
15099;DHT22;33900;53.640;9.942;2023-05-07T01:29:46;13.20;83.70
15099;DHT22;33900;53.640;9.942;2023-05-07T01:32:12;13.20;83.80
15099;DHT22;33900;53.640;9.942;2023-05-07T01:34:38;13.20;83.80
15099;DHT22;33900;53.640;9.942;2023-05-07T01:37:04;13.20;83.60
15099;DHT22;33900;53.640;9.942;2023-05-07T01:39:30;13.20;83.70
15099;DHT22;33900;53.640;9.942;2023-05-07T01:41:56;13.10;83.60
15099;DHT22;33900;53.640;9.942;2023-05-07T01:44:23;13.10;83.60
15099;DHT22;33900;53.640;9.942;2023-05-07T01:46:52;13.10;83.70
15099;DHT22;33900;53.640;9.942;2023-05-07T01:49:18;13.10;83.70
15099;DHT22;33900;53.640;9.942;2023-05-07T01:51:44;13.10;83.80
15099;DHT22;33900;53.640;9.942;2023-05-07T01:54:09;13.10;83.70
15099;DHT22;33900;53.640;9.942;2023-05-07T01:56:35;13.10;83.60
15099;DHT22;33900;53.640;9.942;2023-05-07T01:59:04;13.10;83.70
15099;DHT22;33900;53.640;9.942;2023-05-07T02:01:30;13.10;83.70
15099;DHT22;33900;53.640;9.942;2023-05-07T02:03:56;13.10;83.70
15099;DHT22;33900;53.640;9.942;2023-05-07T02:06:25;13.00;83.60
15099;DHT22;33900;53.640;9.942;2023-05-07T02:08:55;13.00;83.60
15099;DHT22;33900;53.640;9.942;2023-05-07T02:11:23;13.10;83.70
15099;DHT22;33900;53.640;9.942;2023-05-07T02:13:50;13.00;83.70
15099;DHT22;33900;53.640;9.942;2023-05-07T02:19:47;13.00;83.70
15099;DHT22;33900;53.640;9.942;2023-05-07T02:22:12;13.10;83.70
15099;DHT22;33900;53.640;9.942;2023-05-07T02:24:41;13.00;83.70
15099;DHT22;33900;53.640;9.942;2023-05-07T02:27:10;13.00;83.60
15099;DHT22;33900;53.640;9.942;2023-05-07T02:29:39;13.00;83.70
15099;DHT22;33900;53.640;9.942;2023-05-07T02:32:05;13.00;83.60
15099;DHT22;33900;53.640;9.942;2023-05-07T02:34:30;13.00;83.60
15099;DHT22;33900;53.640;9.942;2023-05-07T02:36:56;13.00;83.50
15099;DHT22;33900;53.640;9.942;2023-05-07T02:39:24;13.00;83.60
15099;DHT22;33900;53.640;9.942;2023-05-07T02:41:50;13.00;83.70
15099;DHT22;33900;53.640;9.942;2023-05-07T02:44:15;13.00;83.60
15099;DHT22;33900;53.640;9.942;2023-05-07T02:46:42;13.00;83.80
15099;DHT22;33900;53.640;9.942;2023-05-07T02:49:13;13.00;83.80
15099;DHT22;33900;53.640;9.942;2023-05-07T02:51:39;13.00;83.70
15099;DHT22;33900;53.640;9.942;2023-05-07T02:54:10;13.00;83.80
15099;DHT22;33900;53.640;9.942;2023-05-07T02:56:36;13.00;83.80
15099;DHT22;33900;53.640;9.942;2023-05-07T02:59:02;13.00;83.80
15099;DHT22;33900;53.640;9.942;2023-05-07T03:01:32;13.00;83.80
15099;DHT22;33900;53.640;9.942;2023-05-07T03:04:02;13.00;83.80
15099;DHT22;33900;53.640;9.942;2023-05-07T03:06:28;13.00;83.90
15099;DHT22;33900;53.640;9.942;2023-05-07T03:08:53;13.00;83.70
15099;DHT22;33900;53.640;9.942;2023-05-07T03:11:19;13.00;83.80
15099;DHT22;33900;53.640;9.942;2023-05-07T03:13:45;12.90;83.80
15099;DHT22;33900;53.640;9.942;2023-05-07T03:16:14;12.90;83.80
15099;DHT22;33900;53.640;9.942;2023-05-07T03:18:42;12.90;83.80
15099;DHT22;33900;53.640;9.942;2023-05-07T03:21:08;12.90;83.70
15099;DHT22;33900;53.640;9.942;2023-05-07T03:23:34;12.90;83.70
15099;DHT22;33900;53.640;9.942;2023-05-07T03:26:02;12.90;83.80
15099;DHT22;33900;53.640;9.942;2023-05-07T03:28:28;12.90;83.70
15099;DHT22;33900;53.640;9.942;2023-05-07T03:30:58;12.90;83.80
15099;DHT22;33900;53.640;9.942;2023-05-07T03:33:24;12.90;83.70
15099;DHT22;33900;53.640;9.942;2023-05-07T03:35:50;12.90;83.70
15099;DHT22;33900;53.640;9.942;2023-05-07T03:38:20;12.90;83.70
15099;DHT22;33900;53.640;9.942;2023-05-07T03:40:46;12.90;83.70
15099;DHT22;33900;53.640;9.942;2023-05-07T03:43:15;12.90;83.80
15099;DHT22;33900;53.640;9.942;2023-05-07T03:45:45;12.90;83.80
15099;DHT22;33900;53.640;9.942;2023-05-07T03:48:19;13.00;83.80
15099;DHT22;33900;53.640;9.942;2023-05-07T03:50:48;13.00;83.80
15099;DHT22;33900;53.640;9.942;2023-05-07T03:53:16;13.00;83.80
15099;DHT22;33900;53.640;9.942;2023-05-07T03:55:45;12.90;83.60
15099;DHT22;33900;53.640;9.942;2023-05-07T03:58:11;13.00;83.70
15099;DHT22;33900;53.640;9.942;2023-05-07T04:00:39;12.90;83.70
15099;DHT22;33900;53.640;9.942;2023-05-07T04:03:19;13.00;83.70
15099;DHT22;33900;53.640;9.942;2023-05-07T04:05:45;12.90;83.60
15099;DHT22;33900;53.640;9.942;2023-05-07T04:08:10;12.90;83.60
15099;DHT22;33900;53.640;9.942;2023-05-07T04:10:54;12.90;83.60
15099;DHT22;33900;53.640;9.942;2023-05-07T04:13:23;12.90;83.60
15099;DHT22;33900;53.640;9.942;2023-05-07T04:15:48;12.90;83.60
15099;DHT22;33900;53.640;9.942;2023-05-07T04:18:16;13.00;83.70
15099;DHT22;33900;53.640;9.942;2023-05-07T04:20:49;13.00;83.70
15099;DHT22;33900;53.640;9.942;2023-05-07T04:23:20;13.00;83.60
15099;DHT22;33900;53.640;9.942;2023-05-07T04:25:49;12.90;83.60
15099;DHT22;33900;53.640;9.942;2023-05-07T04:28:31;13.00;83.60
15099;DHT22;33900;53.640;9.942;2023-05-07T04:30:57;13.00;83.60
15099;DHT22;33900;53.640;9.942;2023-05-07T04:33:23;13.00;83.70
15099;DHT22;33900;53.640;9.942;2023-05-07T04:35:50;13.00;83.70
15099;DHT22;33900;53.640;9.942;2023-05-07T04:38:15;13.00;83.60
15099;DHT22;33900;53.640;9.942;2023-05-07T04:40:42;13.00;83.50
15099;DHT22;33900;53.640;9.942;2023-05-07T04:43:10;12.90;83.40
15099;DHT22;33900;53.640;9.942;2023-05-07T04:45:43;12.90;83.30
15099;DHT22;33900;53.640;9.942;2023-05-07T04:48:12;12.90;83.40
15099;DHT22;33900;53.640;9.942;2023-05-07T04:50:43;12.90;83.30
15099;DHT22;33900;53.640;9.942;2023-05-07T04:53:08;12.90;83.40
15099;DHT22;33900;53.640;9.942;2023-05-07T04:55:35;12.90;83.40
15099;DHT22;33900;53.640;9.942;2023-05-07T04:58:01;12.90;83.40
15099;DHT22;33900;53.640;9.942;2023-05-07T05:00:29;12.90;83.30
15099;DHT22;33900;53.640;9.942;2023-05-07T05:02:58;12.90;83.30
15099;DHT22;33900;53.640;9.942;2023-05-07T05:05:24;12.90;83.30
15099;DHT22;33900;53.640;9.942;2023-05-07T05:07:55;12.90;83.30
15099;DHT22;33900;53.640;9.942;2023-05-07T05:10:24;13.00;83.30
15099;DHT22;33900;53.640;9.942;2023-05-07T05:12:51;13.00;83.30
15099;DHT22;33900;53.640;9.942;2023-05-07T05:15:16;12.90;83.20
15099;DHT22;33900;53.640;9.942;2023-05-07T05:17:42;12.90;83.10
15099;DHT22;33900;53.640;9.942;2023-05-07T05:20:08;12.90;83.10
15099;DHT22;33900;53.640;9.942;2023-05-07T05:22:36;12.90;83.20
15099;DHT22;33900;53.640;9.942;2023-05-07T05:25:03;12.90;83.30
15099;DHT22;33900;53.640;9.942;2023-05-07T05:27:28;12.90;83.30
15099;DHT22;33900;53.640;9.942;2023-05-07T05:29:54;12.90;83.30
15099;DHT22;33900;53.640;9.942;2023-05-07T05:32:20;12.90;83.20
15099;DHT22;33900;53.640;9.942;2023-05-07T05:34:49;12.90;83.20
15099;DHT22;33900;53.640;9.942;2023-05-07T05:37:15;12.90;83.20
15099;DHT22;33900;53.640;9.942;2023-05-07T05:39:40;12.90;83.20
15099;DHT22;33900;53.640;9.942;2023-05-07T05:42:09;12.80;83.10
15099;DHT22;33900;53.640;9.942;2023-05-07T05:44:35;12.80;83.10
15099;DHT22;33900;53.640;9.942;2023-05-07T05:47:00;12.90;83.30
15099;DHT22;33900;53.640;9.942;2023-05-07T05:49:27;12.90;83.10
15099;DHT22;33900;53.640;9.942;2023-05-07T05:51:53;12.90;83.10
15099;DHT22;33900;53.640;9.942;2023-05-07T05:54:20;12.90;83.30
15099;DHT22;33900;53.640;9.942;2023-05-07T05:56:46;12.90;83.30
15099;DHT22;33900;53.640;9.942;2023-05-07T05:59:13;12.90;83.20
15099;DHT22;33900;53.640;9.942;2023-05-07T06:01:38;12.90;83.30
15099;DHT22;33900;53.640;9.942;2023-05-07T06:04:04;12.90;83.20
15099;DHT22;33900;53.640;9.942;2023-05-07T06:06:29;13.00;83.20
15099;DHT22;33900;53.640;9.942;2023-05-07T06:08:57;12.90;83.20
15099;DHT22;33900;53.640;9.942;2023-05-07T06:11:28;12.90;83.10
15099;DHT22;33900;53.640;9.942;2023-05-07T06:13:54;13.00;83.20
15099;DHT22;33900;53.640;9.942;2023-05-07T06:16:20;13.00;83.20
15099;DHT22;33900;53.640;9.942;2023-05-07T06:18:47;13.00;83.20
15099;DHT22;33900;53.640;9.942;2023-05-07T06:21:14;13.00;83.20
15099;DHT22;33900;53.640;9.942;2023-05-07T06:23:40;13.00;83.00
15099;DHT22;33900;53.640;9.942;2023-05-07T06:26:06;13.00;83.10
15099;DHT22;33900;53.640;9.942;2023-05-07T06:28:37;13.00;83.20
15099;DHT22;33900;53.640;9.942;2023-05-07T06:31:17;13.00;83.00
15099;DHT22;33900;53.640;9.942;2023-05-07T06:33:49;13.00;83.00
15099;DHT22;33900;53.640;9.942;2023-05-07T06:36:18;13.00;83.10
15099;DHT22;33900;53.640;9.942;2023-05-07T06:38:47;13.00;83.10
15099;DHT22;33900;53.640;9.942;2023-05-07T06:41:17;13.00;83.20
15099;DHT22;33900;53.640;9.942;2023-05-07T06:43:46;13.00;83.10
15099;DHT22;33900;53.640;9.942;2023-05-07T06:46:29;13.00;83.00
15099;DHT22;33900;53.640;9.942;2023-05-07T06:48:55;13.00;83.20
15099;DHT22;33900;53.640;9.942;2023-05-07T06:51:22;13.00;83.10
15099;DHT22;33900;53.640;9.942;2023-05-07T06:53:48;13.10;83.10
15099;DHT22;33900;53.640;9.942;2023-05-07T06:56:14;13.10;83.10
15099;DHT22;33900;53.640;9.942;2023-05-07T06:58:42;13.10;83.10
15099;DHT22;33900;53.640;9.942;2023-05-07T07:01:09;13.10;83.10
15099;DHT22;33900;53.640;9.942;2023-05-07T07:03:39;13.10;83.10
15099;DHT22;33900;53.640;9.942;2023-05-07T07:06:08;13.10;83.10
15099;DHT22;33900;53.640;9.942;2023-05-07T07:08:34;13.10;83.10
15099;DHT22;33900;53.640;9.942;2023-05-07T07:11:00;13.10;82.90
15099;DHT22;33900;53.640;9.942;2023-05-07T07:13:25;13.10;82.90
15099;DHT22;33900;53.640;9.942;2023-05-07T07:15:51;13.10;82.90
15099;DHT22;33900;53.640;9.942;2023-05-07T07:18:17;13.10;83.10
15099;DHT22;33900;53.640;9.942;2023-05-07T07:20:45;13.10;83.10
15099;DHT22;33900;53.640;9.942;2023-05-07T07:23:11;13.20;83.10
15099;DHT22;33900;53.640;9.942;2023-05-07T07:25:40;13.20;83.10
15099;DHT22;33900;53.640;9.942;2023-05-07T07:28:10;13.20;83.00
15099;DHT22;33900;53.640;9.942;2023-05-07T07:30:37;13.20;82.90
15099;DHT22;33900;53.640;9.942;2023-05-07T07:33:03;13.20;82.90
15099;DHT22;33900;53.640;9.942;2023-05-07T07:35:34;13.20;82.90
15099;DHT22;33900;53.640;9.942;2023-05-07T07:38:01;13.20;82.90
15099;DHT22;33900;53.640;9.942;2023-05-07T07:40:28;13.20;82.80
15099;DHT22;33900;53.640;9.942;2023-05-07T07:42:54;13.20;82.70
15099;DHT22;33900;53.640;9.942;2023-05-07T07:45:21;13.20;82.70
15099;DHT22;33900;53.640;9.942;2023-05-07T07:47:48;13.20;82.70
15099;DHT22;33900;53.640;9.942;2023-05-07T07:50:14;13.20;82.80
15099;DHT22;33900;53.640;9.942;2023-05-07T07:52:43;13.20;82.80
15099;DHT22;33900;53.640;9.942;2023-05-07T07:55:09;13.20;82.80
15099;DHT22;33900;53.640;9.942;2023-05-07T07:57:36;13.20;82.80
15099;DHT22;33900;53.640;9.942;2023-05-07T08:00:05;13.20;82.70
15099;DHT22;33900;53.640;9.942;2023-05-07T08:02:42;13.20;82.70
15099;DHT22;33900;53.640;9.942;2023-05-07T08:05:10;13.30;82.70
15099;DHT22;33900;53.640;9.942;2023-05-07T08:07:36;13.30;82.70
15099;DHT22;33900;53.640;9.942;2023-05-07T08:10:02;13.30;82.70
15099;DHT22;33900;53.640;9.942;2023-05-07T08:12:28;13.30;82.70
15099;DHT22;33900;53.640;9.942;2023-05-07T08:14:54;13.40;82.70
15099;DHT22;33900;53.640;9.942;2023-05-07T08:17:20;13.40;82.70
15099;DHT22;33900;53.640;9.942;2023-05-07T08:19:48;13.40;82.80
15099;DHT22;33900;53.640;9.942;2023-05-07T08:22:14;13.50;82.80
15099;DHT22;33900;53.640;9.942;2023-05-07T08:24:40;13.50;82.70
15099;DHT22;33900;53.640;9.942;2023-05-07T08:27:06;13.50;82.70
15099;DHT22;33900;53.640;9.942;2023-05-07T08:29:32;13.50;82.50
15099;DHT22;33900;53.640;9.942;2023-05-07T08:31:59;13.50;82.50
15099;DHT22;33900;53.640;9.942;2023-05-07T08:34:25;13.40;82.40
15099;DHT22;33900;53.640;9.942;2023-05-07T08:36:52;13.50;82.50
15099;DHT22;33900;53.640;9.942;2023-05-07T08:39:24;13.40;82.40
15099;DHT22;33900;53.640;9.942;2023-05-07T08:41:53;13.40;82.30
15099;DHT22;33900;53.640;9.942;2023-05-07T08:44:22;13.40;82.40
15099;DHT22;33900;53.640;9.942;2023-05-07T08:46:51;13.40;82.50
15099;DHT22;33900;53.640;9.942;2023-05-07T08:49:20;13.40;82.50
15099;DHT22;33900;53.640;9.942;2023-05-07T08:51:46;13.50;82.50
15099;DHT22;33900;53.640;9.942;2023-05-07T08:54:15;13.50;82.50
15099;DHT22;33900;53.640;9.942;2023-05-07T08:56:41;13.50;82.50
15099;DHT22;33900;53.640;9.942;2023-05-07T08:59:07;13.50;82.40
15099;DHT22;33900;53.640;9.942;2023-05-07T09:01:32;13.50;82.30
15099;DHT22;33900;53.640;9.942;2023-05-07T09:04:04;13.50;82.40
15099;DHT22;33900;53.640;9.942;2023-05-07T09:06:29;13.50;82.30
15099;DHT22;33900;53.640;9.942;2023-05-07T09:08:56;13.60;82.30
15099;DHT22;33900;53.640;9.942;2023-05-07T09:11:27;13.60;82.30
15099;DHT22;33900;53.640;9.942;2023-05-07T09:13:56;13.60;82.30
15099;DHT22;33900;53.640;9.942;2023-05-07T09:16:24;13.60;82.30
15099;DHT22;33900;53.640;9.942;2023-05-07T09:18:54;13.60;82.30
15099;DHT22;33900;53.640;9.942;2023-05-07T09:21:21;13.60;82.30
15099;DHT22;33900;53.640;9.942;2023-05-07T09:23:53;13.60;82.00
15099;DHT22;33900;53.640;9.942;2023-05-07T09:26:21;13.60;82.00
15099;DHT22;33900;53.640;9.942;2023-05-07T09:28:47;13.70;82.20
15099;DHT22;33900;53.640;9.942;2023-05-07T09:31:14;13.60;82.00
15099;DHT22;33900;53.640;9.942;2023-05-07T09:33:40;13.60;82.00
15099;DHT22;33900;53.640;9.942;2023-05-07T09:36:08;13.60;82.00
15099;DHT22;33900;53.640;9.942;2023-05-07T09:38:39;13.70;82.20
15099;DHT22;33900;53.640;9.942;2023-05-07T09:41:08;13.70;82.10
15099;DHT22;33900;53.640;9.942;2023-05-07T09:43:41;13.70;82.10
15099;DHT22;33900;53.640;9.942;2023-05-07T09:46:13;13.70;82.00
15099;DHT22;33900;53.640;9.942;2023-05-07T09:48:42;13.70;82.80
15099;DHT22;33900;53.640;9.942;2023-05-07T09:51:29;13.80;82.00
15099;DHT22;33900;53.640;9.942;2023-05-07T09:53:58;13.80;82.00
15099;DHT22;33900;53.640;9.942;2023-05-07T09:56:27;13.80;82.00
15099;DHT22;33900;53.640;9.942;2023-05-07T09:58:54;13.80;82.10
15099;DHT22;33900;53.640;9.942;2023-05-07T10:01:22;13.80;82.00
15099;DHT22;33900;53.640;9.942;2023-05-07T10:03:50;13.80;82.00
15099;DHT22;33900;53.640;9.942;2023-05-07T10:06:16;13.90;82.00
15099;DHT22;33900;53.640;9.942;2023-05-07T10:08:43;13.90;81.80
15099;DHT22;33900;53.640;9.942;2023-05-07T10:11:09;13.90;81.80
15099;DHT22;33900;53.640;9.942;2023-05-07T10:13:35;13.90;81.80
15099;DHT22;33900;53.640;9.942;2023-05-07T10:16:05;13.90;81.80
15099;DHT22;33900;53.640;9.942;2023-05-07T10:18:37;13.90;81.70
15099;DHT22;33900;53.640;9.942;2023-05-07T10:21:18;14.00;81.80
15099;DHT22;33900;53.640;9.942;2023-05-07T10:23:50;14.00;81.70
15099;DHT22;33900;53.640;9.942;2023-05-07T10:26:23;14.00;81.70
15099;DHT22;33900;53.640;9.942;2023-05-07T10:28:58;14.00;81.70
15099;DHT22;33900;53.640;9.942;2023-05-07T10:31:43;14.10;81.80
15099;DHT22;33900;53.640;9.942;2023-05-07T10:34:13;14.10;81.70
15099;DHT22;33900;53.640;9.942;2023-05-07T10:36:43;14.10;81.60
15099;DHT22;33900;53.640;9.942;2023-05-07T10:39:10;14.10;81.40
15099;DHT22;33900;53.640;9.942;2023-05-07T10:41:37;14.10;81.30
15099;DHT22;33900;53.640;9.942;2023-05-07T10:44:03;14.10;81.40
15099;DHT22;33900;53.640;9.942;2023-05-07T10:46:32;14.10;81.40
15099;DHT22;33900;53.640;9.942;2023-05-07T10:49:16;14.10;81.50
15099;DHT22;33900;53.640;9.942;2023-05-07T10:52:11;14.10;81.60
15099;DHT22;33900;53.640;9.942;2023-05-07T10:54:38;14.20;81.50
15099;DHT22;33900;53.640;9.942;2023-05-07T10:59:53;14.20;81.40
15099;DHT22;33900;53.640;9.942;2023-05-07T11:03:10;14.20;81.30
15099;DHT22;33900;53.640;9.942;2023-05-07T11:05:19;14.20;81.30
15099;DHT22;33900;53.640;9.942;2023-05-07T11:07:55;14.30;81.30
15099;DHT22;33900;53.640;9.942;2023-05-07T11:10:46;14.30;81.30
15099;DHT22;33900;53.640;9.942;2023-05-07T11:13:17;14.30;81.30
15099;DHT22;33900;53.640;9.942;2023-05-07T11:15:47;14.30;81.40
15099;DHT22;33900;53.640;9.942;2023-05-07T11:21:34;14.40;81.30
15099;DHT22;33900;53.640;9.942;2023-05-07T11:24:14;14.40;81.20
15099;DHT22;33900;53.640;9.942;2023-05-07T11:27:02;14.40;81.20
15099;DHT22;33900;53.640;9.942;2023-05-07T11:29:31;14.40;81.20
15099;DHT22;33900;53.640;9.942;2023-05-07T11:32:10;14.40;81.20
15099;DHT22;33900;53.640;9.942;2023-05-07T11:34:45;14.50;81.20
15099;DHT22;33900;53.640;9.942;2023-05-07T11:37:16;14.50;81.20
15099;DHT22;33900;53.640;9.942;2023-05-07T11:39:49;14.50;81.10
15099;DHT22;33900;53.640;9.942;2023-05-07T11:42:33;14.50;81.10
15099;DHT22;33900;53.640;9.942;2023-05-07T11:45:02;14.60;81.10
15099;DHT22;33900;53.640;9.942;2023-05-07T11:47:32;14.60;81.10
15099;DHT22;33900;53.640;9.942;2023-05-07T11:50:02;14.70;81.00
15099;DHT22;33900;53.640;9.942;2023-05-07T11:52:28;14.70;81.70
15099;DHT22;33900;53.640;9.942;2023-05-07T11:54:55;14.70;80.80
15099;DHT22;33900;53.640;9.942;2023-05-07T11:57:22;14.70;80.80
15099;DHT22;33900;53.640;9.942;2023-05-07T11:59:48;14.70;80.90
15099;DHT22;33900;53.640;9.942;2023-05-07T12:02:17;14.80;81.00
15099;DHT22;33900;53.640;9.942;2023-05-07T12:04:46;14.80;80.60
15099;DHT22;33900;53.640;9.942;2023-05-07T12:07:12;14.80;80.60
15099;DHT22;33900;53.640;9.942;2023-05-07T12:09:39;14.80;80.70
15099;DHT22;33900;53.640;9.942;2023-05-07T12:12:05;14.80;80.60
15099;DHT22;33900;53.640;9.942;2023-05-07T12:14:31;14.90;80.80
15099;DHT22;33900;53.640;9.942;2023-05-07T12:17:01;15.00;80.80
15099;DHT22;33900;53.640;9.942;2023-05-07T12:19:29;15.00;80.70
15099;DHT22;33900;53.640;9.942;2023-05-07T12:21:55;15.00;80.60
15099;DHT22;33900;53.640;9.942;2023-05-07T12:24:21;15.10;80.70
15099;DHT22;33900;53.640;9.942;2023-05-07T12:26:47;15.10;80.60
15099;DHT22;33900;53.640;9.942;2023-05-07T12:29:13;15.10;80.50
15099;DHT22;33900;53.640;9.942;2023-05-07T12:31:43;15.10;80.50
15099;DHT22;33900;53.640;9.942;2023-05-07T12:34:13;15.20;80.60
15099;DHT22;33900;53.640;9.942;2023-05-07T12:36:39;15.20;80.60
15099;DHT22;33900;53.640;9.942;2023-05-07T12:39:08;15.30;80.70
15099;DHT22;33900;53.640;9.942;2023-05-07T12:41:53;15.30;80.60
15099;DHT22;33900;53.640;9.942;2023-05-07T12:44:21;15.40;80.60
15099;DHT22;33900;53.640;9.942;2023-05-07T12:46:47;15.40;80.50
15099;DHT22;33900;53.640;9.942;2023-05-07T12:49:13;15.50;80.60
15099;DHT22;33900;53.640;9.942;2023-05-07T12:51:38;15.50;80.50
15099;DHT22;33900;53.640;9.942;2023-05-07T12:54:04;15.60;80.50
15099;DHT22;33900;53.640;9.942;2023-05-07T12:56:30;15.60;80.30
15099;DHT22;33900;53.640;9.942;2023-05-07T12:58:59;15.70;80.20
15099;DHT22;33900;53.640;9.942;2023-05-07T13:01:28;15.70;80.20
15099;DHT22;33900;53.640;9.942;2023-05-07T13:03:54;15.70;80.10
15099;DHT22;33900;53.640;9.942;2023-05-07T13:06:23;15.70;80.20
15099;DHT22;33900;53.640;9.942;2023-05-07T13:08:49;15.80;80.20
15099;DHT22;33900;53.640;9.942;2023-05-07T13:11:14;15.80;80.20
15099;DHT22;33900;53.640;9.942;2023-05-07T13:13:40;15.90;80.10
15099;DHT22;33900;53.640;9.942;2023-05-07T13:16:07;15.90;79.90
15099;DHT22;33900;53.640;9.942;2023-05-07T13:18:33;15.90;79.80
15099;DHT22;33900;53.640;9.942;2023-05-07T13:20:59;16.00;79.80
15099;DHT22;33900;53.640;9.942;2023-05-07T13:23:26;16.00;79.80
15099;DHT22;33900;53.640;9.942;2023-05-07T13:25:51;16.10;79.70
15099;DHT22;33900;53.640;9.942;2023-05-07T13:28:19;16.10;79.60
15099;DHT22;33900;53.640;9.942;2023-05-07T13:30:45;16.10;79.80
15099;DHT22;33900;53.640;9.942;2023-05-07T13:33:11;16.20;79.70
15099;DHT22;33900;53.640;9.942;2023-05-07T13:35:37;16.30;79.80
15099;DHT22;33900;53.640;9.942;2023-05-07T13:38:05;16.30;79.70
15099;DHT22;33900;53.640;9.942;2023-05-07T13:40:31;16.40;79.80
15099;DHT22;33900;53.640;9.942;2023-05-07T13:42:57;16.50;79.90
15099;DHT22;33900;53.640;9.942;2023-05-07T13:45:24;16.50;79.80
15099;DHT22;33900;53.640;9.942;2023-05-07T13:47:51;16.60;79.70
15099;DHT22;33900;53.640;9.942;2023-05-07T13:50:17;16.70;79.40
15099;DHT22;33900;53.640;9.942;2023-05-07T13:52:43;16.70;79.40
15099;DHT22;33900;53.640;9.942;2023-05-07T13:55:11;16.80;79.40
15099;DHT22;33900;53.640;9.942;2023-05-07T13:57:39;16.90;79.40
15099;DHT22;33900;53.640;9.942;2023-05-07T14:00:05;16.90;79.30
15099;DHT22;33900;53.640;9.942;2023-05-07T14:02:40;17.00;79.30
15099;DHT22;33900;53.640;9.942;2023-05-07T14:05:06;17.10;79.30
15099;DHT22;33900;53.640;9.942;2023-05-07T14:07:35;17.10;79.10
15099;DHT22;33900;53.640;9.942;2023-05-07T14:10:01;17.20;79.20
15099;DHT22;33900;53.640;9.942;2023-05-07T14:12:27;17.20;78.70
15099;DHT22;33900;53.640;9.942;2023-05-07T14:14:53;17.30;78.60
15099;DHT22;33900;53.640;9.942;2023-05-07T14:17:18;17.30;78.50
15099;DHT22;33900;53.640;9.942;2023-05-07T14:19:44;17.40;78.50
15099;DHT22;33900;53.640;9.942;2023-05-07T14:22:10;17.40;78.40
15099;DHT22;33900;53.640;9.942;2023-05-07T14:24:36;17.40;78.40
15099;DHT22;33900;53.640;9.942;2023-05-07T14:27:01;17.40;78.30
15099;DHT22;33900;53.640;9.942;2023-05-07T14:29:27;17.40;78.20
15099;DHT22;33900;53.640;9.942;2023-05-07T14:31:52;17.40;78.10
15099;DHT22;33900;53.640;9.942;2023-05-07T14:34:18;17.40;77.50
15099;DHT22;33900;53.640;9.942;2023-05-07T14:36:44;17.50;77.70
15099;DHT22;33900;53.640;9.942;2023-05-07T14:39:09;17.50;77.70
15099;DHT22;33900;53.640;9.942;2023-05-07T14:41:35;17.50;77.50
15099;DHT22;33900;53.640;9.942;2023-05-07T14:44:01;17.50;77.40
15099;DHT22;33900;53.640;9.942;2023-05-07T14:46:29;17.50;77.10
15099;DHT22;33900;53.640;9.942;2023-05-07T14:48:55;17.50;77.20
15099;DHT22;33900;53.640;9.942;2023-05-07T14:51:20;17.60;77.20
15099;DHT22;33900;53.640;9.942;2023-05-07T14:53:53;17.60;77.00
15099;DHT22;33900;53.640;9.942;2023-05-07T14:56:20;17.60;76.90
15099;DHT22;33900;53.640;9.942;2023-05-07T14:58:49;17.60;76.70
15099;DHT22;33900;53.640;9.942;2023-05-07T15:01:14;17.60;76.30
15099;DHT22;33900;53.640;9.942;2023-05-07T15:03:40;17.60;76.40
15099;DHT22;33900;53.640;9.942;2023-05-07T15:06:05;17.60;76.10
15099;DHT22;33900;53.640;9.942;2023-05-07T15:08:31;17.60;76.00
15099;DHT22;33900;53.640;9.942;2023-05-07T15:10:56;17.60;76.00
15099;DHT22;33900;53.640;9.942;2023-05-07T15:13:25;17.60;75.90
15099;DHT22;33900;53.640;9.942;2023-05-07T15:15:51;17.50;75.70
15099;DHT22;33900;53.640;9.942;2023-05-07T15:18:16;17.50;75.70
15099;DHT22;33900;53.640;9.942;2023-05-07T15:20:42;17.50;75.90
15099;DHT22;33900;53.640;9.942;2023-05-07T15:23:07;17.50;75.80
15099;DHT22;33900;53.640;9.942;2023-05-07T15:25:46;17.50;75.70
15099;DHT22;33900;53.640;9.942;2023-05-07T15:28:11;17.50;75.60
15099;DHT22;33900;53.640;9.942;2023-05-07T15:30:43;17.40;75.50
15099;DHT22;33900;53.640;9.942;2023-05-07T15:33:08;17.40;75.40
15099;DHT22;33900;53.640;9.942;2023-05-07T15:35:34;17.40;75.40
15099;DHT22;33900;53.640;9.942;2023-05-07T15:37:59;17.40;75.40
15099;DHT22;33900;53.640;9.942;2023-05-07T15:40:26;17.40;75.50
15099;DHT22;33900;53.640;9.942;2023-05-07T15:42:53;17.40;75.40
15099;DHT22;33900;53.640;9.942;2023-05-07T15:45:19;17.40;75.30